Bazemore, Alabama
Current Conditions -  °F | °C
As of 7:35 PM on Friday 19 Dec 2014 (Local Time) from KJFX Reporting Station
Light Rain Light Rain  
Wind Chill: 43°   Ceiling: Unl
Heat Index: 43°   Visibility: 4mi
Dew Point: 39°   Wind: 0mph
Humidity: 87%   Direction: NA
Pressure: 30.22"   Gusts: NA
Location:  33.8945°N, 87.7003°W
Report Text: KJFX 200135Z AUTO 00000KT 4SM -RA CLR 06/04 A3022 RMK A02 P-128
Loading
Personal Weather Stations






























Interactive Weather Map New forecast layout! Learn more

10-Day Weather Forecast

Advertisements
Track Severe Weather on mobile